Time;durP1;ratioP1;P1;durP2;ratioP2;P2;SDS_P1;SDS_P2;PMS_P1;PMS_P2;Temp;Humidity;BMP_temperature;BMP_pressure;BME280_temperature;BME280_humidity;BME280_pressure;Samples;Min_cycle;Max_cycle;Signal;HPM_P1;HPM_P2
2021/09/26 00:01:24;;;;;;;2.85;1.90;;;;;;;22.78;37.96;97973.47;4981375;28;20528;-79
2021/09/26 00:03:49;;;;;;;2.65;1.77;;;;;;;22.79;38.08;97977.78;5013689;28;20504;-79
2021/09/26 00:06:15;;;;;;;4.03;1.77;;;;;;;22.75;37.95;97984.03;5014074;28;20136;-80
2021/09/26 00:08:41;;;;;;;3.45;1.40;;;;;;;22.58;38.06;97973.53;4997611;28;20060;-79
2021/09/26 00:11:07;;;;;;;1.30;1.17;;;;;;;22.83;37.43;97995.09;5013819;28;20091;-78
2021/09/26 00:13:35;;;;;;;2.58;1.20;;;;;;;22.99;37.29;98001.28;4998033;28;20045;-78
2021/09/26 00:16:01;;;;;;;1.65;1.50;;;;;;;22.77;38.40;97990.78;5015264;28;20436;-78
2021/09/26 00:18:27;;;;;;;3.50;1.50;;;;;;;22.63;37.72;97984.34;5030386;28;20131;-78
2021/09/26 00:20:53;;;;;;;2.70;1.10;;;;;;;22.77;37.71;97987.28;5030164;28;20132;-77
2021/09/26 00:23:18;;;;;;;2.17;1.30;;;;;;;22.78;37.87;97978.91;5014006;28;20546;-78
2021/09/26 00:25:45;;;;;;;3.22;1.30;;;;;;;23.03;37.12;97977.97;5016992;28;20566;-77
2021/09/26 00:28:11;;;;;;;3.95;1.30;;;;;;;22.93;37.33;97978.84;5016714;28;20103;-77
2021/09/26 00:30:36;;;;;;;3.80;1.42;;;;;;;22.85;37.57;97978.56;5049875;28;20504;-77
2021/09/26 00:33:02;;;;;;;3.75;1.30;;;;;;;22.76;37.80;97974.81;5000122;28;20037;-78
2021/09/26 00:35:28;;;;;;;4.00;1.50;;;;;;;22.71;37.87;97962.13;5016714;28;20530;-79
2021/09/26 00:37:54;;;;;;;2.90;1.90;;;;;;;22.75;37.46;97978.63;5016641;28;20423;-78
2021/09/26 00:40:20;;;;;;;6.25;1.30;;;;;;;22.75;37.40;97978.63;5000516;28;20051;-77
2021/09/26 00:42:46;;;;;;;2.60;1.48;;;;;;;22.71;37.75;97972.94;4984579;28;20041;-78
2021/09/26 00:45:12;;;;;;;2.05;1.55;;;;;;;23.01;37.46;97978.25;5033121;28;20514;-77
2021/09/26 00:47:38;;;;;;;5.38;3.20;;;;;;;22.75;37.87;97973.22;5016734;28;20055;-78
2021/09/26 00:50:05;;;;;;;4.80;3.15;;;;;;;22.89;37.78;97983.19;5049704;28;20045;-78
2021/09/26 00:52:31;;;;;;;6.05;2.58;;;;;;;22.84;37.92;97985.09;5049778;28;20041;-77
2021/09/26 00:54:57;;;;;;;5.57;2.67;;;;;;;22.82;37.99;97984.53;5000324;28;20393;-77
2021/09/26 00:57:23;;;;;;;3.72;2.47;;;;;;;22.75;37.39;97987.56;5016602;28;20048;-77
2021/09/26 00:59:49;;;;;;;2.58;1.90;;;;;;;22.68;37.74;97972.72;5000986;28;20052;-77
2021/09/26 01:02:15;;;;;;;4.40;2.70;;;;;;;22.79;37.66;97985.91;5016511;28;20053;-77
2021/09/26 01:04:42;;;;;;;2.90;2.00;;;;;;;22.77;37.66;97985.38;5000124;28;20111;-77
2021/09/26 01:07:22;;;;;;;3.83;2.17;;;;;;;23.23;37.36;97981.38;5016472;28;20423;-77
2021/09/26 01:10:03;;;;;;;6.65;2.60;;;;;;;23.23;36.94;97988.72;5017030;28;20107;-78
2021/09/26 01:12:55;;;;;;;4.63;2.33;;;;;;;23.27;37.08;97987.09;5033038;28;20048;-77
2021/09/26 01:15:26;;;;;;;4.35;2.42;;;;;;;23.11;37.18;97972.78;5016556;28;20049;-78
2021/09/26 01:18:05;;;;;;;4.13;2.70;;;;;;;23.38;37.06;97977.00;5033310;28;20044;-79
2021/09/26 01:20:43;;;;;;;6.35;2.30;;;;;;;22.85;37.56;98001.06;4999984;28;20052;-78
2021/09/26 01:23:48;;;;;;;4.70;2.28;;;;;;;23.52;36.61;98002.41;5002011;28;20135;-77
2021/09/26 01:26:24;;;;;;;6.47;3.13;;;;;;;23.42;37.15;98005.19;4997406;28;20050;-78
2021/09/26 01:29:28;;;;;;;7.57;3.47;;;;;;;23.48;36.88;97996.72;5013691;28;20394;-79
2021/09/26 01:32:02;;;;;;;3.58;1.80;;;;;;;23.27;37.31;97998.75;4997719;28;20041;-79
2021/09/26 01:34:33;;;;;;;5.45;2.17;;;;;;;23.18;37.07;98005.81;5013551;28;20049;-79
2021/09/26 01:37:03;;;;;;;5.65;2.40;;;;;;;23.27;37.46;98008.75;4997051;28;20053;-77
2021/09/26 01:39:42;;;;;;;5.32;2.40;;;;;;;23.26;37.18;98012.56;4988560;28;20424;-79
2021/09/26 01:42:13;;;;;;;5.65;2.15;;;;;;;23.15;37.24;98009.06;5027293;28;20062;-77
2021/09/26 01:45:03;;;;;;;4.80;1.95;;;;;;;23.24;36.72;98006.59;5017118;28;20060;-78
2021/09/26 01:47:43;;;;;;;3.22;1.92;;;;;;;23.32;37.19;98018.75;5013268;28;20069;-78
2021/09/26 01:50:12;;;;;;;3.15;2.20;;;;;;;23.19;37.16;98017.44;4980577;28;20208;-78
2021/09/26 01:52:39;;;;;;;4.97;2.00;;;;;;;23.06;37.21;98015.34;5012943;28;20413;-78
2021/09/26 01:55:07;;;;;;;3.42;1.92;;;;;;;23.08;37.48;98010.44;5012927;28;20049;-78
2021/09/26 01:57:36;;;;;;;3.63;2.08;;;;;;;22.64;37.71;97995.97;5013202;28;20053;-79
2021/09/26 02:00:04;;;;;;;4.22;2.45;;;;;;;22.90;37.51;98011.88;5012937;28;20052;-78
2021/09/26 02:02:38;;;;;;;2.85;2.00;;;;;;;22.71;37.94;98008.13;4997839;28;20053;-78
2021/09/26 02:05:06;;;;;;;2.03;1.60;;;;;;;23.01;37.55;98009.94;4980012;28;20045;-78
2021/09/26 02:07:34;;;;;;;1.80;1.50;;;;;;;22.99;37.46;97999.38;5012739;28;20053;-78
2021/09/26 02:10:01;;;;;;;1.67;1.50;;;;;;;22.89;37.41;98018.38;4996791;28;20077;-78
2021/09/26 02:12:28;;;;;;;3.00;1.60;;;;;;;23.07;37.47;98017.78;5012652;28;20046;-78
2021/09/26 02:14:55;;;;;;;1.60;1.33;;;;;;;23.02;37.50;98017.78;5014162;28;20140;-78
2021/09/26 02:17:22;;;;;;;1.48;1.30;;;;;;;23.18;36.83;98022.06;4980161;28;20501;-77
2021/09/26 02:19:50;;;;;;;3.83;1.50;;;;;;;23.38;36.99;98029.31;5029238;28;20077;-78
2021/09/26 02:22:16;;;;;;;1.48;1.38;;;;;;;23.10;36.83;98024.53;5012909;28;20389;-79
2021/09/26 02:24:43;;;;;;;1.80;1.38;;;;;;;23.17;36.83;98030.47;5038839;28;20119;-78
2021/09/26 02:27:09;;;;;;;1.40;1.13;;;;;;;23.00;36.41;98030.78;5019396;28;20398;-79
2021/09/26 02:29:35;;;;;;;3.88;1.38;;;;;;;23.10;37.14;98032.66;5052154;28;20082;-78
2021/09/26 02:32:02;;;;;;;4.07;1.20;;;;;;;22.93;36.19;98032.97;5035491;28;20052;-79
2021/09/26 02:34:28;;;;;;;1.48;1.20;;;;;;;22.92;36.50;98036.78;5018536;28;20052;-79
2021/09/26 02:36:53;;;;;;;1.17;1.08;;;;;;;22.72;36.68;98028.72;5019662;28;20048;-81
2021/09/26 02:39:20;;;;;;;1.75;0.95;;;;;;;22.74;36.85;98031.16;5002841;28;20049;-81
2021/09/26 02:42:32;;;;;;;1.83;1.10;;;;;;;23.25;35.46;98027.19;5051743;28;20087;-80
2021/09/26 02:45:21;;;;;;;2.25;1.05;;;;;;;23.15;35.59;98033.44;5052986;28;20053;-76
2021/09/26 02:47:59;;;;;;;2.88;1.08;;;;;;;23.08;36.26;98042.94;5018586;28;20107;-80
2021/09/26 02:50:25;;;;;;;4.72;1.08;;;;;;;22.56;36.49;98050.66;5035468;28;20087;-81
2021/09/26 02:52:52;;;;;;;2.28;1.17;;;;;;;22.87;36.55;98046.81;5018509;28;20080;-81
2021/09/26 02:55:18;;;;;;;2.50;1.33;;;;;;;22.78;36.22;98043.84;4985929;28;20052;-81
2021/09/26 02:57:44;;;;;;;2.17;1.20;;;;;;;22.89;36.64;98052.75;5002232;28;20515;-81
2021/09/26 03:00:10;;;;;;;2.45;1.20;;;;;;;22.92;36.25;98050.31;5034949;28;20075;-81
2021/09/26 03:02:36;;;;;;;1.35;1.25;;;;;;;22.71;36.59;98048.72;5018314;28;20045;-79
2021/09/26 03:05:04;;;;;;;1.52;0.95;;;;;;;22.88;36.48;98045.75;5018211;28;20412;-77
2021/09/26 03:07:30;;;;;;;2.80;1.15;;;;;;;22.48;36.38;98046.56;5018028;28;20071;-77
2021/09/26 03:09:56;;;;;;;2.60;1.27;;;;;;;22.54;36.62;98047.44;5002078;28;20083;-77
2021/09/26 03:12:22;;;;;;;2.20;1.25;;;;;;;22.71;36.63;98045.22;5034679;28;20067;-76
2021/09/26 03:14:49;;;;;;;3.10;1.50;;;;;;;22.80;36.86;98047.09;5034621;28;20474;-78
2021/09/26 03:17:16;;;;;;;4.32;1.60;;;;;;;22.73;36.63;98053.88;5034402;28;20049;-76
2021/09/26 03:19:42;;;;;;;3.13;1.42;;;;;;;22.70;36.72;98049.81;5034451;28;20407;-80
2021/09/26 03:22:09;;;;;;;3.63;1.40;;;;;;;22.73;36.96;98051.97;5034380;28;20048;-79
2021/09/26 03:24:35;;;;;;;1.15;1.00;;;;;;;22.92;36.53;98058.44;5001344;28;20056;-80
2021/09/26 03:27:03;;;;;;;2.95;1.40;;;;;;;22.69;36.54;98056.34;5034518;28;20547;-80
2021/09/26 03:29:32;;;;;;;1.85;1.20;;;;;;;22.66;36.71;98054.19;5034498;28;20149;-79
2021/09/26 03:31:59;;;;;;;3.15;1.20;;;;;;;22.81;36.46;98056.03;5051341;28;20060;-80
2021/09/26 03:34:25;;;;;;;2.15;1.17;;;;;;;22.68;36.50;98062.81;5034184;28;20037;-80
2021/09/26 03:36:51;;;;;;;3.53;1.08;;;;;;;22.77;36.41;98049.56;5001457;28;20037;-80
2021/09/26 03:39:17;;;;;;;1.85;1.08;;;;;;;22.60;36.49;98051.75;5034084;28;20412;-75
2021/09/26 03:41:43;;;;;;;1.20;1.10;;;;;;;22.51;36.70;98048.75;5017651;28;20037;-78
2021/09/26 03:44:09;;;;;;;0.95;0.90;;;;;;;22.59;36.43;98061.75;5051712;28;20045;-78
2021/09/26 03:46:34;;;;;;;3.10;1.13;;;;;;;22.55;36.66;98055.28;5000478;28;20041;-76
2021/09/26 03:49:00;;;;;;;1.50;0.85;;;;;;;22.60;36.43;98057.16;5001385;28;20041;-78
2021/09/26 03:51:27;;;;;;;1.95;0.90;;;;;;;22.70;36.00;98065.25;5017656;28;20139;-78
2021/09/26 03:53:52;;;;;;;1.85;1.10;;;;;;;22.68;36.12;98064.72;5017252;28;20508;-77
2021/09/26 03:56:18;;;;;;;1.23;0.90;;;;;;;22.75;36.21;98063.34;5050456;28;20048;-78
2021/09/26 03:58:44;;;;;;;0.75;0.75;;;;;;;22.67;36.32;98063.91;5033772;28;20079;-79
2021/09/26 04:01:10;;;;;;;0.93;0.90;;;;;;;22.69;35.79;98067.16;5017050;28;20049;-78
2021/09/26 04:03:35;;;;;;;2.28;1.00;;;;;;;22.77;35.82;98073.91;5000837;28;20049;-79
2021/09/26 04:06:01;;;;;;;3.45;1.00;;;;;;;22.68;35.96;98073.63;5000895;28;20094;-77
2021/09/26 04:08:27;;;;;;;1.27;1.00;;;;;;;22.75;35.91;98076.91;5017252;28;20044;-80
2021/09/26 04:10:53;;;;;;;2.92;1.20;;;;;;;22.66;35.88;98070.41;5017114;28;20519;-80
2021/09/26 04:13:19;;;;;;;1.00;0.90;;;;;;;22.76;35.75;98075.78;5033932;28;20049;-80
2021/09/26 04:15:44;;;;;;;1.20;1.10;;;;;;;22.89;35.40;98079.84;5000782;28;20515;-80
2021/09/26 04:18:10;;;;;;;1.05;1.00;;;;;;;22.85;35.56;98079.56;5017178;28;20048;-79
2021/09/26 04:20:36;;;;;;;3.20;1.00;;;;;;;22.83;35.52;98081.72;5033791;28;20594;-78
2021/09/26 04:23:02;;;;;;;1.75;1.10;;;;;;;22.90;35.51;98084.97;4985091;28;20055;-79
2021/09/26 04:25:27;;;;;;;3.08;1.02;;;;;;;22.88;35.75;98081.72;5020446;28;20107;-78
2021/09/26 04:27:57;;;;;;;3.08;1.08;;;;;;;22.84;35.50;98091.50;4985669;28;20491;-79
2021/09/26 04:30:22;;;;;;;1.10;0.95;;;;;;;22.78;35.01;98087.16;5034239;28;20093;-80
2021/09/26 04:32:48;;;;;;;1.92;1.15;;;;;;;22.53;35.55;98089.06;5019960;28;20077;-81
2021/09/26 04:35:14;;;;;;;1.75;1.00;;;;;;;22.70;35.36;98081.47;5011291;28;20104;-78
2021/09/26 04:37:40;;;;;;;2.42;1.00;;;;;;;22.49;35.02;98088.81;5031639;28;20052;-81
2021/09/26 04:40:07;;;;;;;1.77;1.05;;;;;;;22.92;35.17;98087.41;5004696;28;20194;-80
2021/09/26 04:42:33;;;;;;;3.28;1.33;;;;;;;22.79;35.45;98091.50;5034214;28;20053;-81
2021/09/26 04:44:59;;;;;;;1.88;1.30;;;;;;;22.74;35.50;98091.50;5017548;28;20056;-77
2021/09/26 04:47:25;;;;;;;2.53;1.20;;;;;;;23.09;35.11;98090.63;5000603;28;20463;-78
2021/09/26 04:49:51;;;;;;;4.38;1.40;;;;;;;22.74;34.70;98079.88;5000451;28;20087;-78
2021/09/26 04:52:17;;;;;;;1.52;1.40;;;;;;;22.98;35.10;98097.13;5000397;28;20048;-79
2021/09/26 04:54:43;;;;;;;1.33;1.23;;;;;;;23.00;34.83;98098.47;5016638;28;20045;-79
2021/09/26 04:57:08;;;;;;;5.65;1.50;;;;;;;23.02;34.71;98085.47;5002452;28;20466;-78
2021/09/26 04:59:34;;;;;;;4.22;1.30;;;;;;;23.00;34.69;98097.69;5021005;28;20079;-78
2021/09/26 05:02:00;;;;;;;2.67;1.20;;;;;;;22.99;34.66;98094.16;5037357;28;20041;-78
2021/09/26 05:04:27;;;;;;;2.25;1.00;;;;;;;22.89;34.53;98098.78;5003995;28;20044;-78
2021/09/26 05:06:53;;;;;;;1.92;1.20;;;;;;;23.11;34.50;98102.78;5055212;28;20076;-78
2021/09/26 05:09:19;;;;;;;1.25;1.00;;;;;;;23.09;34.42;98109.56;5020202;28;20566;-77
2021/09/26 05:11:45;;;;;;;1.90;1.10;;;;;;;23.13;34.37;98111.44;5053598;28;20033;-77
2021/09/26 05:14:11;;;;;;;1.48;0.90;;;;;;;23.10;34.37;98103.88;5004204;28;20056;-78
2021/09/26 05:16:37;;;;;;;4.53;1.10;;;;;;;23.27;34.39;98111.72;5036829;28;20407;-76
2021/09/26 05:19:04;;;;;;;1.75;1.00;;;;;;;23.39;34.37;98117.63;5004309;28;20051;-78
2021/09/26 05:21:31;;;;;;;1.75;1.02;;;;;;;23.51;34.36;98118.09;5020443;28;20052;-78
2021/09/26 05:23:56;;;;;;;7.35;1.00;;;;;;;23.22;34.12;98115.22;5020377;28;20061;-78
2021/09/26 05:26:22;;;;;;;1.55;0.90;;;;;;;23.26;34.07;98121.72;4987649;28;20040;-78
2021/09/26 05:28:48;;;;;;;3.25;1.02;;;;;;;23.17;34.06;98120.63;5020035;28;20554;-79
2021/09/26 05:31:14;;;;;;;1.73;0.98;;;;;;;23.36;34.18;98128.22;5020062;28;20041;-79
2021/09/26 05:33:40;;;;;;;1.35;0.90;;;;;;;23.36;34.10;98126.31;5020030;28;20099;-77
2021/09/26 05:36:05;;;;;;;2.15;1.10;;;;;;;23.53;33.70;98128.66;5020376;28;20139;-77
2021/09/26 05:38:31;;;;;;;2.90;1.23;;;;;;;23.66;33.71;98128.09;5019837;28;20128;-78
2021/09/26 05:40:57;;;;;;;2.35;1.02;;;;;;;23.70;33.93;98121.81;5036278;28;20068;-77
2021/09/26 05:43:23;;;;;;;6.18;1.13;;;;;;;23.67;34.00;98119.66;5036557;28;20063;-77
2021/09/26 05:45:49;;;;;;;1.25;1.05;;;;;;;23.92;33.79;98132.28;5019592;28;20048;-77
2021/09/26 05:48:16;;;;;;;2.95;1.10;;;;;;;23.88;33.32;98134.75;5019711;28;20064;-76
2021/09/26 05:50:42;;;;;;;4.03;1.10;;;;;;;23.79;33.65;98141.00;5035574;28;20045;-76
2021/09/26 05:53:09;;;;;;;2.35;1.00;;;;;;;23.72;33.96;98127.78;5003444;28;20079;-75
2021/09/26 05:55:34;;;;;;;1.95;0.90;;;;;;;23.66;34.01;98131.63;5020078;28;20416;-80
2021/09/26 05:58:00;;;;;;;1.85;1.00;;;;;;;23.68;33.85;98139.47;5003175;28;20045;-76
2021/09/26 06:00:26;;;;;;;4.63;1.10;;;;;;;23.78;33.70;98142.13;5019366;28;20037;-78
2021/09/26 06:02:52;;;;;;;2.05;1.02;;;;;;;23.96;33.84;98145.03;5003167;28;20041;-76
2021/09/26 06:05:18;;;;;;;3.55;1.08;;;;;;;23.96;33.46;98146.94;5035873;28;20045;-80
2021/09/26 06:07:44;;;;;;;2.75;0.90;;;;;;;24.22;33.45;98140.25;5018733;28;20082;-81
2021/09/26 06:10:11;;;;;;;1.35;0.90;;;;;;;24.16;33.35;98157.66;5002985;28;20044;-79
2021/09/26 06:12:37;;;;;;;4.25;0.95;;;;;;;24.05;33.27;98150.69;5036000;28;20057;-77
2021/09/26 06:15:03;;;;;;;2.30;1.30;;;;;;;24.18;33.16;98156.31;5003080;28;20049;-79
2021/09/26 06:17:32;;;;;;;3.00;1.05;;;;;;;24.64;32.87;98159.50;5035895;28;20204;-80
2021/09/26 06:19:59;;;;;;;2.33;1.10;;;;;;;24.45;32.91;98169.41;5002851;28;20036;-78
2021/09/26 06:22:26;;;;;;;1.73;0.90;;;;;;;24.23;32.92;98164.38;5019184;28;20049;-79
2021/09/26 06:24:53;;;;;;;1.95;0.77;;;;;;;24.23;32.73;98177.16;5035392;28;20079;-78
2021/09/26 06:27:20;;;;;;;3.80;0.80;;;;;;;24.19;33.09;98179.63;5002897;28;20076;-78
2021/09/26 06:29:46;;;;;;;1.08;0.70;;;;;;;23.92;33.34;98178.38;5002429;28;20045;-78
2021/09/26 06:32:12;;;;;;;3.55;0.85;;;;;;;23.91;33.58;98172.13;5035940;28;20049;-76
2021/09/26 06:34:38;;;;;;;1.30;0.80;;;;;;;23.93;33.03;98182.72;5020299;28;20518;-76
2021/09/26 06:37:05;;;;;;;1.73;0.73;;;;;;;24.18;33.06;98174.47;5003914;28;20055;-79
2021/09/26 06:39:32;;;;;;;1.65;0.70;;;;;;;24.31;32.48;98168.44;5022553;28;20067;-77
2021/09/26 06:41:58;;;;;;;1.20;0.70;;;;;;;24.12;32.39;98194.59;5021194;28;20044;-77
2021/09/26 06:44:24;;;;;;;1.30;0.68;;;;;;;24.09;32.81;98187.00;5023104;28;20488;-78
2021/09/26 06:46:50;;;;;;;1.00;0.90;;;;;;;24.14;32.61;98187.00;5041334;28;20045;-79
2021/09/26 06:49:16;;;;;;;4.65;0.90;;;;;;;24.12;33.08;98195.41;5009830;28;20052;-80
2021/09/26 06:51:41;;;;;;;1.35;0.90;;;;;;;24.10;32.75;98194.03;5030684;28;20041;-75
2021/09/26 06:54:07;;;;;;;1.10;0.90;;;;;;;24.06;32.76;98195.72;5036580;28;20491;-77
2021/09/26 06:56:33;;;;;;;1.02;0.93;;;;;;;23.99;32.64;98206.03;5038321;28;20485;-76
2021/09/26 06:58:59;;;;;;;1.38;0.90;;;;;;;23.85;32.84;98202.28;5031918;28;20047;-82
2021/09/26 07:01:24;;;;;;;1.58;1.10;;;;;;;23.94;33.16;98211.47;5066221;28;20040;-75
2021/09/26 07:03:51;;;;;;;2.30;1.20;;;;;;;24.05;33.15;98213.88;5021662;28;20415;-79
2021/09/26 07:06:17;;;;;;;1.95;1.23;;;;;;;23.82;32.82;98210.97;5038787;28;20052;-79
2021/09/26 07:08:42;;;;;;;1.60;1.05;;;;;;;23.84;33.06;98204.19;5055002;28;20044;-78
2021/09/26 07:11:08;;;;;;;1.70;1.10;;;;;;;23.86;33.07;98212.03;5022478;28;20461;-77
2021/09/26 07:13:34;;;;;;;2.65;1.10;;;;;;;24.03;32.66;98216.03;5034974;28;20044;-80
2021/09/26 07:16:00;;;;;;;3.65;1.08;;;;;;;24.13;32.43;98224.16;5034728;28;20049;-80
2021/09/26 07:18:26;;;;;;;1.10;1.00;;;;;;;24.28;32.55;98223.28;5051998;28;20049;-80
2021/09/26 07:20:52;;;;;;;1.58;1.10;;;;;;;24.40;32.29;98226.44;5018023;28;20131;-80
2021/09/26 07:23:18;;;;;;;1.65;1.00;;;;;;;24.61;31.92;98230.66;5018194;28;20576;-80
2021/09/26 07:25:43;;;;;;;2.60;0.90;;;;;;;24.79;31.74;98230.00;5034251;28;20044;-78
2021/09/26 07:28:09;;;;;;;1.08;0.98;;;;;;;25.01;31.05;98230.38;5018523;28;20072;-78
2021/09/26 07:30:35;;;;;;;15.07;11.82;;;;;;;25.54;31.00;98233.97;5038332;28;20053;-75
2021/09/26 07:33:01;;;;;;;1.67;0.90;;;;;;;25.65;30.23;98240.91;5026639;28;20041;-73
2021/09/26 07:35:27;;;;;;;0.90;0.88;;;;;;;26.13;29.09;98245.25;5055873;28;20123;-79
2021/09/26 07:37:53;;;;;;;1.35;1.00;;;;;;;26.31;28.76;98234.41;5050569;28;20071;-80
2021/09/26 07:40:19;;;;;;;1.08;0.80;;;;;;;26.63;29.15;98239.16;5033858;28;20051;-75
2021/09/26 07:42:45;;;;;;;1.88;0.95;;;;;;;26.70;28.44;98255.13;5033953;28;20143;-75
2021/09/26 07:45:13;;;;;;;1.77;1.00;;;;;;;26.70;27.81;98247.75;5034447;28;20584;-74
2021/09/26 07:47:39;;;;;;;2.10;0.95;;;;;;;26.81;27.85;98237.50;5051725;28;20048;-75
2021/09/26 07:50:06;;;;;;;2.35;0.95;;;;;;;27.08;27.65;98257.50;5033879;28;20043;-76
2021/09/26 07:52:32;;;;;;;2.97;0.80;;;;;;;26.76;27.68;98259.38;5033808;28;20132;-74
2021/09/26 07:54:58;;;;;;;2.10;1.10;;;;;;;26.38;28.62;98253.94;5033668;28;20127;-75
2021/09/26 07:57:25;;;;;;;2.70;1.00;;;;;;;26.05;28.63;98256.78;5033728;28;20044;-74
2021/09/26 07:59:52;;;;;;;2.05;1.60;;;;;;;25.95;29.22;98259.63;5033558;28;20420;-74
2021/09/26 08:02:21;;;;;;;1.80;0.82;;;;;;;26.20;29.45;98260.13;5033691;28;20148;-74
2021/09/26 08:04:46;;;;;;;4.57;0.80;;;;;;;25.92;29.00;98274.63;5016864;28;20044;-76
2021/09/26 08:07:13;;;;;;;1.58;1.00;;;;;;;25.83;28.63;98270.88;5033866;28;20045;-75
2021/09/26 08:09:39;;;;;;;4.80;1.40;;;;;;;25.66;29.04;98265.09;5050151;28;20075;-74
2021/09/26 08:12:06;;;;;;;4.00;1.60;;;;;;;25.98;28.84;98276.19;5017185;28;20076;-74
2021/09/26 08:14:32;;;;;;;1.33;1.10;;;;;;;25.55;28.97;98274.47;5033341;28;20086;-75
2021/09/26 08:17:00;;;;;;;2.88;1.30;;;;;;;25.51;29.18;98278.06;5027562;28;20037;-75
2021/09/26 08:19:26;;;;;;;2.30;1.20;;;;;;;25.23;29.64;98279.63;5069897;28;20037;-74
2021/09/26 08:21:52;;;;;;;4.18;1.40;;;;;;;24.89;30.00;98303.25;5053170;28;20050;-74
2021/09/26 08:24:18;;;;;;;5.35;1.25;;;;;;;24.74;30.08;98308.78;5052949;28;20052;-74
2021/09/26 08:26:43;;;;;;;3.42;1.60;;;;;;;24.45;30.83;98288.81;5070198;28;20484;-74
2021/09/26 08:29:09;;;;;;;2.17;1.60;;;;;;;24.47;31.25;98308.38;5020062;28;20050;-75
2021/09/26 08:31:35;;;;;;;3.40;1.55;;;;;;;24.43;30.89;98313.53;5052765;28;20128;-75
2021/09/26 08:34:01;;;;;;;2.08;1.50;;;;;;;24.42;31.13;98308.38;5003738;28;20049;-75
2021/09/26 08:36:27;;;;;;;2.97;1.92;;;;;;;24.41;31.40;98317.63;5020131;28;20089;-75
2021/09/26 08:38:53;;;;;;;2.13;1.70;;;;;;;24.38;31.35;98310.88;5020136;28;20048;-77
2021/09/26 08:41:20;;;;;;;2.55;1.70;;;;;;;24.36;32.22;98309.50;5086584;28;20044;-74
2021/09/26 08:43:47;;;;;;;2.55;1.60;;;;;;;24.76;31.78;98326.44;5036656;28;20063;-75
2021/09/26 08:46:14;;;;;;;2.38;1.85;;;;;;;24.71;31.57;98326.44;5036833;28;20040;-75
2021/09/26 08:48:40;;;;;;;2.67;2.10;;;;;;;24.34;32.07;98333.41;5053070;28;20053;-75
2021/09/26 08:51:06;;;;;;;1.83;1.55;;;;;;;24.08;32.24;98319.09;5020760;28;20047;-75
2021/09/26 08:53:32;;;;;;;8.70;4.95;;;;;;;24.19;32.34;98336.97;5037380;28;20047;-74
2021/09/26 08:55:57;;;;;;;3.45;1.60;;;;;;;24.23;32.83;98337.25;5036040;28;20079;-74
2021/09/26 08:58:23;;;;;;;4.85;2.10;;;;;;;24.22;32.11;98327.47;5003693;28;20461;-74
2021/09/26 09:00:51;;;;;;;3.20;1.50;;;;;;;24.75;32.17;98348.44;5003661;28;20527;-74
2021/09/26 09:03:16;;;;;;;2.60;1.67;;;;;;;24.55;32.03;98351.22;5039265;28;20515;-75
2021/09/26 09:05:43;;;;;;;2.40;1.67;;;;;;;24.78;31.53;98356.84;5024960;28;20045;-74
2021/09/26 09:08:17;;;;;;;6.18;1.95;;;;;;;25.39;31.03;98362.69;5027140;28;20128;-74
2021/09/26 09:10:53;;;;;;;5.82;1.88;;;;;;;25.71;31.15;98349.34;5016435;28;20037;-75
2021/09/26 09:13:34;;;;;;;4.95;2.05;;;;;;;26.06;30.15;98357.19;5016410;28;20627;-74
2021/09/26 09:16:06;;;;;;;3.53;2.03;;;;;;;26.08;29.71;98355.00;5000060;28;20146;-76
2021/09/26 09:18:42;;;;;;;2.22;1.45;;;;;;;26.82;28.52;98362.53;5016527;28;20041;-75
2021/09/26 09:21:23;;;;;;;5.32;1.40;;;;;;;27.91;27.16;98355.66;5048942;28;20488;-74
2021/09/26 09:23:53;;;;;;;1.92;1.40;;;;;;;28.38;25.52;98357.22;5049416;28;20415;-75
2021/09/26 09:26:48;;;;;;;3.28;1.75;;;;;;;29.25;24.99;98366.81;5033058;28;20079;-75
2021/09/26 09:29:13;;;;;;;1.65;1.50;;;;;;;28.50;25.50;98366.56;4971352;28;20068;-77
2021/09/26 09:31:51;;;;;;;2.75;1.40;;;;;;;28.87;24.94;98365.50;5000056;28;20484;-75
2021/09/26 09:34:46;;;;;;;2.22;1.50;;;;;;;28.68;25.01;98370.28;5066173;28;20485;-74
2021/09/26 09:37:21;;;;;;;1.58;1.40;;;;;;;28.25;25.61;98374.44;5006438;28;20044;-75
2021/09/26 09:40:15;;;;;;;2.60;1.80;;;;;;;28.11;26.25;98374.38;5035727;28;20047;-76
2021/09/26 09:42:42;;;;;;;2.90;1.50;;;;;;;27.17;26.83;98367.47;5040155;28;20040;-74
2021/09/26 09:45:18;;;;;;;3.08;1.80;;;;;;;27.57;26.85;98377.00;5046137;28;20075;-75
2021/09/26 09:47:56;;;;;;;4.40;1.60;;;;;;;27.37;26.69;98366.41;5072683;28;20051;-74
2021/09/26 09:50:29;;;;;;;4.40;1.30;;;;;;;27.16;27.15;98365.03;5022987;28;20162;-74
2021/09/26 09:52:55;;;;;;;3.35;1.30;;;;;;;26.67;27.68;98353.75;5039867;28;20119;-74
2021/09/26 09:55:25;;;;;;;2.05;1.20;;;;;;;27.05;27.46;98377.19;5039664;28;20090;-74
2021/09/26 09:57:50;;;;;;;2.42;1.40;;;;;;;26.63;28.09;98369.91;5089880;28;20075;-74
2021/09/26 10:00:19;;;;;;;1.35;1.17;;;;;;;27.00;27.54;98385.47;5022934;28;20036;-73
2021/09/26 10:02:45;;;;;;;2.38;1.00;;;;;;;26.75;27.56;98373.00;5006386;28;20048;-73
2021/09/26 10:05:34;;;;;;;1.15;1.00;;;;;;;26.99;27.36;98398.28;5073911;28;20052;-74
2021/09/26 10:08:00;;;;;;;2.78;1.20;;;;;;;26.66;27.92;98393.00;5039249;28;20040;-74
2021/09/26 10:10:33;;;;;;;1.42;1.17;;;;;;;27.12;27.03;98402.19;5055882;28;20105;-73
2021/09/26 10:13:12;;;;;;;1.15;1.05;;;;;;;27.33;26.91;98398.91;5039432;28;20040;-74
2021/09/26 10:15:39;;;;;;;2.10;1.00;;;;;;;26.97;27.40;98411.38;5055605;28;20048;-74
2021/09/26 10:18:05;;;;;;;3.08;1.25;;;;;;;26.85;27.87;98391.13;5073797;28;20468;-75
2021/09/26 10:20:32;;;;;;;4.30;1.70;;;;;;;27.06;27.14;98417.00;5055432;28;20082;-74
2021/09/26 10:22:58;;;;;;;1.20;1.10;;;;;;;26.78;27.39;98421.47;5089475;28;20051;-73
2021/09/26 10:25:24;;;;;;;2.08;1.27;;;;;;;26.54;27.52;98420.63;5031783;28;20060;-74
2021/09/26 10:27:52;;;;;;;2.75;1.45;;;;;;;26.64;27.46;98415.09;5040078;28;20041;-70
2021/09/26 10:30:18;;;;;;;2.97;1.35;;;;;;;26.27;27.99;98432.09;5038440;28;20060;-75
2021/09/26 10:32:44;;;;;;;5.15;1.85;;;;;;;26.17;28.29;98426.75;5002553;28;20037;-74
2021/09/26 10:35:10;;;;;;;1.80;1.27;;;;;;;25.70;28.58;98409.47;5002393;28;20049;-74
2021/09/26 10:37:36;;;;;;;1.20;0.90;;;;;;;25.93;28.28;98423.16;4985764;28;20041;-74
2021/09/26 10:40:04;;;;;;;1.45;1.00;;;;;;;25.70;28.73;98409.47;5035282;28;20053;-74
2021/09/26 10:42:40;;;;;;;1.70;1.10;;;;;;;26.04;28.07;98435.59;5002190;28;20056;-73
2021/09/26 10:45:08;;;;;;;1.48;1.20;;;;;;;25.64;29.34;98433.19;5034968;28;20072;-74
2021/09/26 10:47:38;;;;;;;2.17;1.83;;;;;;;25.63;29.39;98444.34;5018833;28;20051;-74
2021/09/26 10:50:15;;;;;;;2.03;1.50;;;;;;;25.55;29.08;98445.78;5002184;28;20040;-74
2021/09/26 10:52:47;;;;;;;1.80;1.30;;;;;;;25.35;29.46;98445.91;5018390;28;20115;-74
2021/09/26 10:55:18;;;;;;;2.97;1.40;;;;;;;25.17;29.77;98443.78;5034766;28;20396;-74
2021/09/26 10:57:47;;;;;;;2.33;1.00;;;;;;;25.14;29.31;98449.78;5034674;28;20556;-74
2021/09/26 11:00:30;;;;;;;5.60;1.20;;;;;;;25.45;29.03;98456.69;4985670;28;20051;-73
2021/09/26 11:03:05;;;;;;;3.22;1.33;;;;;;;25.61;29.11;98452.78;4985889;28;20443;-73
2021/09/26 11:05:36;;;;;;;3.83;0.82;;;;;;;25.57;28.92;98462.59;5052406;28;20454;-74
2021/09/26 11:08:06;;;;;;;1.50;1.13;;;;;;;25.71;28.33;98468.22;5052495;28;20045;-74
2021/09/26 11:10:50;;;;;;;1.98;1.00;;;;;;;25.98;27.74;98476.69;5001660;28;20048;-74
2021/09/26 11:13:22;;;;;;;3.58;1.10;;;;;;;26.08;27.56;98476.63;5052312;28;20060;-74
2021/09/26 11:16:04;;;;;;;1.27;0.95;;;;;;;26.96;26.44;98480.63;5052529;28;20045;-74
2021/09/26 11:18:52;;;;;;;0.65;0.65;;;;;;;27.83;25.63;98477.22;4985091;28;20044;-74
2021/09/26 11:21:37;;;;;;;1.77;0.95;;;;;;;28.08;24.11;98495.13;5001422;28;20397;-74
2021/09/26 11:24:04;;;;;;;1.00;0.60;;;;;;;27.48;25.10;98485.13;5000896;28;20048;-74
2021/09/26 11:26:58;;;;;;;1.85;0.75;;;;;;;27.76;24.68;98495.88;5034145;28;20048;-74
2021/09/26 11:29:31;;;;;;;1.20;0.80;;;;;;;26.98;25.61;98492.06;5053911;28;20496;-74
2021/09/26 11:31:58;;;;;;;1.70;1.10;;;;;;;26.73;26.04;98496.97;5054463;28;20416;-74
2021/09/26 11:34:48;;;;;;;2.95;1.20;;;;;;;26.77;26.35;98503.47;5054193;28;20044;-74
2021/09/26 11:37:15;;;;;;;1.55;1.00;;;;;;;26.05;27.01;98510.69;5037021;28;20066;-73
2021/09/26 11:39:50;;;;;;;2.53;0.80;;;;;;;26.38;26.70;98498.13;5020709;28;20048;-74
2021/09/26 11:42:28;;;;;;;2.72;1.88;;;;;;;26.20;26.92;98513.25;5020635;28;20064;-74